Yantley, Alabama
Current Conditions -  °F | °C
As of 4:22 AM on Sunday 21 Dec 2014 (Local Time) from KMEI Reporting Station
Broken Clouds Broken Clouds  
Wind Chill: 30°   Ceiling: 2500
Heat Index: 34°   Visibility: 10mi
Dew Point: 32°   Wind: 5mph
Humidity: 92%   Direction: 20°NNE
Pressure: 30.16"   Gusts: NA
Location:  32.241°N, 88.3441°W
Report Text: KMEI 211022Z AUTO 02004KT 10SM BKN025 01/00 A3016 RMK AO2 T00110000
Loading
Personal Weather Stations






























Interactive Weather Map New forecast layout! Learn more

10-Day Weather Forecast

Advertisements
Track Severe Weather on mobile